createdAt,value
2017-02-23T00:00:07.490Z,10.19
2017-02-23T00:01:08.043Z,10.17
2017-02-23T00:02:07.635Z,10.11
2017-02-23T00:03:07.148Z,10.11
2017-02-23T00:04:07.722Z,10.12
2017-02-23T00:05:07.252Z,10.17
2017-02-23T00:06:07.851Z,10.14
2017-02-23T00:07:07.721Z,10.12
2017-02-23T00:08:07.356Z,10.12
2017-02-23T00:09:07.961Z,10.12
2017-02-23T00:10:17.457Z,10.11
2017-02-23T00:11:08.107Z,10.07
2017-02-23T00:12:07.663Z,10.08
2017-02-23T00:13:07.228Z,10.09
2017-02-23T00:14:07.337Z,10.21
2017-02-23T00:15:07.939Z,10.20
2017-02-23T00:16:07.509Z,10.20
2017-02-23T00:17:08.180Z,10.19
2017-02-23T00:18:07.721Z,10.20
2017-02-23T00:19:07.280Z,10.25
2017-02-23T00:20:07.889Z,10.15
2017-02-23T00:21:07.486Z,10.23
2017-02-23T00:22:08.061Z,10.19
2017-02-23T00:23:07.639Z,10.23
2017-02-23T00:24:07.161Z,10.25
2017-02-23T00:25:07.796Z,10.20
2017-02-23T00:26:07.399Z,10.28
2017-02-23T00:27:07.966Z,10.22
2017-02-23T00:28:07.539Z,10.27
2017-02-23T00:29:07.126Z,10.29
2017-02-23T00:30:07.685Z,10.31
2017-02-23T00:31:07.239Z,10.30
2017-02-23T00:32:07.821Z,10.34
2017-02-23T00:33:07.350Z,10.35
2017-02-23T00:34:07.861Z,10.37
2017-02-23T00:35:08.341Z,10.37
2017-02-23T00:36:07.946Z,10.35
2017-02-23T00:37:07.487Z,10.37
2017-02-23T00:38:08.231Z,10.41
2017-02-23T00:39:07.755Z,10.40
2017-02-23T00:40:07.366Z,10.35
2017-02-23T00:41:07.943Z,10.38
2017-02-23T00:42:07.576Z,10.38
2017-02-23T00:43:07.231Z,10.41
2017-02-23T00:44:08.820Z,10.43
2017-02-23T00:45:07.604Z,10.42
2017-02-23T00:46:07.513Z,10.34
2017-02-23T00:47:08.054Z,10.36
2017-02-23T00:48:07.649Z,10.36
2017-02-23T00:49:07.454Z,10.41
2017-02-23T00:50:08.243Z,10.40
2017-02-23T00:51:08.812Z,10.33
2017-02-23T00:52:08.671Z,10.43
2017-02-23T00:53:09.212Z,10.40
2017-02-23T00:54:08.067Z,10.39
2017-02-23T00:55:08.242Z,10.32
2017-02-23T00:56:09.832Z,10.25
2017-02-23T00:57:08.914Z,10.29
2017-02-23T00:58:07.779Z,10.39
2017-02-23T00:59:07.590Z,10.37
2017-02-23T01:00:07.915Z,10.37
2017-02-23T01:01:07.599Z,10.28
2017-02-23T01:02:07.612Z,10.31
2017-02-23T01:04:07.887Z,10.27
2017-02-23T01:05:07.413Z,10.26
2017-02-23T01:06:07.791Z,10.28
2017-02-23T01:07:07.704Z,10.28
2017-02-23T01:08:07.486Z,10.30
2017-02-23T01:09:07.169Z,10.23
2017-02-23T01:10:07.830Z,10.26
2017-02-23T01:11:07.486Z,10.29
2017-02-23T01:12:07.094Z,10.33
2017-02-23T01:13:07.527Z,10.24
2017-02-23T01:14:07.917Z,10.24
2017-02-23T01:15:07.495Z,10.28
2017-02-23T01:16:07.229Z,10.30
2017-02-23T01:17:07.863Z,10.20
2017-02-23T01:18:07.507Z,10.34
2017-02-23T01:19:07.793Z,10.24
2017-02-23T01:20:07.764Z,10.24
2017-02-23T01:21:07.436Z,10.26
2017-02-23T01:22:07.827Z,10.26
2017-02-23T01:23:07.770Z,10.23
2017-02-23T01:29:07.148Z,10.33
2017-02-23T01:30:08.754Z,10.38
2017-02-23T01:31:07.700Z,10.36
2017-02-23T01:36:08.353Z,10.26
2017-02-23T01:37:07.433Z,10.27
2017-02-23T01:43:08.127Z,10.20
2017-02-23T01:44:07.713Z,10.25
2017-02-23T01:45:08.188Z,10.16
2017-02-23T01:48:09.164Z,10.15
2017-02-23T01:50:07.676Z,10.09
2017-02-23T01:51:08.404Z,10.10
2017-02-23T01:53:08.993Z,10.09
2017-02-23T01:56:07.116Z,9.99
2017-02-23T01:57:07.593Z,10.04
2017-02-23T01:58:07.825Z,10.06
2017-02-23T01:59:07.317Z,10.03
2017-02-23T02:00:07.846Z,10.01
2017-02-23T02:01:07.535Z,10.02
2017-02-23T02:02:08.093Z,9.97
2017-02-23T02:03:07.434Z,10.00
2017-02-23T02:04:07.959Z,9.99
2017-02-23T02:05:07.897Z,9.94
2017-02-23T02:06:07.568Z,9.98
2017-02-23T02:07:08.249Z,9.97
2017-02-23T02:08:08.239Z,9.97
2017-02-23T02:09:08.880Z,9.98
2017-02-23T02:10:07.541Z,9.98
2017-02-23T02:11:07.634Z,10.00
2017-02-23T02:12:07.773Z,9.93
2017-02-23T02:13:08.857Z,9.95
2017-02-23T02:14:08.646Z,9.92
2017-02-23T02:15:07.637Z,9.88
2017-02-23T02:16:08.259Z,10.01
2017-02-23T02:17:09.715Z,9.94
2017-02-23T02:18:07.788Z,9.99
2017-02-23T02:19:07.426Z,9.93
2017-02-23T02:20:08.169Z,10.02
2017-02-23T02:21:08.093Z,9.99
2017-02-23T02:23:07.236Z,9.87
2017-02-23T02:24:07.823Z,9.85
2017-02-23T02:25:07.728Z,9.81
2017-02-23T02:26:07.638Z,9.79
2017-02-23T02:27:07.300Z,9.79
2017-02-23T02:28:07.887Z,9.83
2017-02-23T02:29:07.577Z,9.76
2017-02-23T02:30:07.089Z,9.80
2017-02-23T02:31:07.666Z,9.78
2017-02-23T02:32:07.247Z,9.80
2017-02-23T02:33:07.759Z,9.79
2017-02-23T02:34:07.309Z,9.82
2017-02-23T02:35:07.891Z,9.80
2017-02-23T02:36:07.709Z,9.74
2017-02-23T02:37:07.277Z,9.75
2017-02-23T02:38:07.808Z,9.73
2017-02-23T02:39:07.607Z,9.78
2017-02-23T02:40:07.078Z,9.81
2017-02-23T02:41:07.889Z,9.81
2017-02-23T02:42:07.783Z,9.78
2017-02-23T02:43:07.251Z,9.80
2017-02-23T02:44:07.764Z,9.77
2017-02-23T02:45:07.278Z,9.76
2017-02-23T02:46:08.855Z,9.79
2017-02-23T02:47:08.368Z,9.75
2017-02-23T02:48:08.790Z,9.72
2017-02-23T02:49:07.715Z,9.75
2017-02-23T02:50:17.203Z,9.76
2017-02-23T02:51:07.796Z,9.77
2017-02-23T02:52:07.474Z,9.76
2017-02-23T02:53:08.008Z,9.74
2017-02-23T02:54:07.589Z,9.79
2017-02-23T02:55:07.106Z,9.82
2017-02-23T02:56:07.725Z,9.81
2017-02-23T02:57:07.368Z,9.79
2017-02-23T02:58:07.967Z,9.80
2017-02-23T02:59:07.915Z,9.77
2017-02-23T03:00:07.515Z,9.77
2017-02-23T03:01:08.116Z,9.79
2017-02-23T03:02:07.649Z,9.78
2017-02-23T03:03:07.216Z,9.71
2017-02-23T03:04:07.861Z,9.67
2017-02-23T03:05:07.519Z,9.66
2017-02-23T03:06:08.157Z,9.67
2017-02-23T03:07:07.745Z,9.72
2017-02-23T03:08:07.455Z,9.70
2017-02-23T03:09:08.067Z,9.70
2017-02-23T03:10:07.961Z,9.64
2017-02-23T03:11:07.507Z,9.69
2017-02-23T03:12:08.080Z,9.64
2017-02-23T03:13:07.599Z,9.62
2017-02-23T03:14:07.225Z,9.67
2017-02-23T03:15:07.845Z,9.62
2017-02-23T03:16:07.438Z,9.65
2017-02-23T03:17:08.139Z,9.62
2017-02-23T03:18:07.752Z,9.57
2017-02-23T03:19:07.351Z,9.60
2017-02-23T03:20:08.244Z,9.53
2017-02-23T03:21:07.843Z,9.62
2017-02-23T03:22:07.415Z,9.60
2017-02-23T03:23:08.029Z,9.59
2017-02-23T03:24:07.703Z,9.59
2017-02-23T03:25:07.272Z,9.54
2017-02-23T03:26:07.435Z,9.57
2017-02-23T03:27:08.630Z,9.56
2017-02-23T03:28:07.683Z,9.56
2017-02-23T03:29:08.553Z,9.60
2017-02-23T03:30:07.998Z,9.54
2017-02-23T03:31:08.131Z,9.56
2017-02-23T03:32:08.876Z,9.60
2017-02-23T03:33:08.549Z,9.65
2017-02-23T03:34:07.348Z,9.55
2017-02-23T03:35:08.062Z,9.58
2017-02-23T03:36:07.791Z,9.59
2017-02-23T03:37:08.466Z,9.57
2017-02-23T03:38:07.211Z,9.57
2017-02-23T03:39:07.918Z,9.57
2017-02-23T03:40:08.630Z,9.53
2017-02-23T03:41:07.480Z,9.56
2017-02-23T03:42:26.841Z,9.53
2017-02-23T03:44:07.691Z,9.54
2017-02-23T03:45:07.210Z,9.47
2017-02-23T03:46:08.909Z,9.48
2017-02-23T03:47:07.611Z,9.55
2017-02-23T03:48:17.094Z,9.53
2017-02-23T03:49:07.743Z,9.49
2017-02-23T03:50:07.450Z,9.43
2017-02-23T03:51:07.960Z,9.47
2017-02-23T03:52:07.818Z,9.48
2017-02-23T03:53:07.356Z,9.38
2017-02-23T03:54:08.847Z,9.40
2017-02-23T03:55:07.450Z,9.36
2017-02-23T03:56:08.057Z,9.40
2017-02-23T03:57:07.629Z,9.33
2017-02-23T03:58:07.186Z,9.30
2017-02-23T03:59:07.721Z,9.29
2017-02-23T04:00:07.677Z,9.26
2017-02-23T04:01:07.213Z,9.30
2017-02-23T04:02:07.779Z,9.25
2017-02-23T04:03:08.235Z,9.26
2017-02-23T04:04:08.048Z,9.25
2017-02-23T04:05:07.741Z,9.25
2017-02-23T04:06:07.203Z,9.29
2017-02-23T04:07:07.847Z,9.26
2017-02-23T04:08:07.378Z,9.19
2017-02-23T04:09:08.008Z,9.18
2017-02-23T04:10:07.671Z,9.09
2017-02-23T04:11:07.263Z,9.11
2017-02-23T04:12:07.719Z,9.15
2017-02-23T04:13:08.527Z,9.08
2017-02-23T04:14:08.178Z,9.04
2017-02-23T04:15:07.931Z,9.10
2017-02-23T04:16:07.583Z,9.10
2017-02-23T04:17:07.555Z,9.14
2017-02-23T04:18:08.148Z,9.12
2017-02-23T04:19:07.659Z,8.98
2017-02-23T04:20:07.249Z,9.00
2017-02-23T04:21:07.807Z,9.02
2017-02-23T04:22:07.374Z,8.96
2017-02-23T04:23:07.934Z,8.98
2017-02-23T04:24:07.562Z,8.97
2017-02-23T04:25:07.214Z,8.99
2017-02-23T04:26:07.851Z,9.00
2017-02-23T04:27:07.308Z,8.94
2017-02-23T04:28:08.228Z,8.84
2017-02-23T04:29:08.133Z,8.87
2017-02-23T04:30:07.726Z,8.92
2017-02-23T04:31:07.334Z,8.94
2017-02-23T04:32:07.947Z,8.87
2017-02-23T04:33:07.507Z,8.90
2017-02-23T04:34:08.010Z,8.90
2017-02-23T04:35:07.570Z,8.95
2017-02-23T04:36:07.068Z,8.87
2017-02-23T04:37:07.501Z,8.81
2017-02-23T04:38:08.122Z,8.78
2017-02-23T04:39:07.824Z,8.82
2017-02-23T04:40:07.388Z,8.91
2017-02-23T04:41:07.949Z,8.91
2017-02-23T04:42:07.510Z,8.95
2017-02-23T04:43:08.111Z,8.96
2017-02-23T04:44:07.594Z,8.82
2017-02-23T04:45:07.655Z,8.86
2017-02-23T04:46:07.151Z,8.87
2017-02-23T04:47:07.820Z,8.89
2017-02-23T04:48:07.730Z,8.79
2017-02-23T04:49:07.468Z,8.75
2017-02-23T04:50:08.229Z,8.83
2017-02-23T04:51:09.164Z,8.86
2017-02-23T04:52:08.031Z,8.77
2017-02-23T04:53:28.394Z,8.80
2017-02-23T04:54:08.362Z,8.84
2017-02-23T04:55:08.442Z,8.81
2017-02-23T04:57:07.463Z,8.70
2017-02-23T04:58:07.505Z,8.83
2017-02-23T04:59:07.285Z,8.90
2017-02-23T05:00:08.026Z,8.84
2017-02-23T05:01:07.914Z,8.74
2017-02-23T05:02:08.684Z,8.74
2017-02-23T05:03:08.348Z,8.74
2017-02-23T05:04:08.036Z,8.81
2017-02-23T05:05:07.874Z,8.86
2017-02-23T05:06:07.777Z,8.81
2017-02-23T05:07:07.352Z,8.81
2017-02-23T05:08:07.907Z,8.70
2017-02-23T05:09:07.745Z,8.82
2017-02-23T05:10:07.254Z,8.84
2017-02-23T05:11:07.770Z,8.77
2017-02-23T05:12:07.322Z,8.77
2017-02-23T05:13:07.981Z,8.83
2017-02-23T05:14:07.560Z,8.73
2017-02-23T05:15:08.164Z,8.75
2017-02-23T05:16:07.728Z,8.69
2017-02-23T05:17:07.403Z,8.64
2017-02-23T05:18:07.960Z,8.72
2017-02-23T05:19:07.576Z,8.57
2017-02-23T05:20:07.119Z,8.70
2017-02-23T05:21:07.753Z,8.80
2017-02-23T05:22:07.277Z,8.68
2017-02-23T05:23:08.192Z,8.76
2017-02-23T05:24:07.635Z,8.71
2017-02-23T05:25:10.677Z,8.60
2017-02-23T05:26:07.975Z,8.66
2017-02-23T05:27:07.543Z,8.67
2017-02-23T05:28:08.112Z,8.71
2017-02-23T05:29:07.823Z,8.60
2017-02-23T05:30:08.143Z,8.76
2017-02-23T05:31:07.885Z,8.74
2017-02-23T05:32:07.528Z,8.65
2017-02-23T05:33:08.119Z,8.67
2017-02-23T05:34:07.644Z,8.73
2017-02-23T05:35:07.277Z,8.77
2017-02-23T05:36:07.880Z,8.74
2017-02-23T05:37:07.458Z,8.79
2017-02-23T05:38:07.931Z,8.69
2017-02-23T05:39:07.464Z,8.67
2017-02-23T05:40:08.143Z,8.73
2017-02-23T05:41:07.762Z,8.75
2017-02-23T05:42:17.294Z,8.69
2017-02-23T05:43:08.771Z,8.79
2017-02-23T05:44:08.264Z,8.76
2017-02-23T05:45:07.863Z,8.77
2017-02-23T05:46:07.487Z,8.89
2017-02-23T05:47:08.098Z,8.70
2017-02-23T05:48:07.643Z,8.81
2017-02-23T05:49:07.090Z,8.80
2017-02-23T05:50:07.707Z,8.74
2017-02-23T05:51:07.224Z,8.73
2017-02-23T05:52:07.705Z,8.78
2017-02-23T05:53:07.945Z,8.84
2017-02-23T05:54:07.565Z,8.75
2017-02-23T05:55:07.267Z,8.75
2017-02-23T05:56:07.824Z,8.75
2017-02-23T05:57:07.516Z,8.84
2017-02-23T05:58:07.151Z,8.76
2017-02-23T05:59:07.684Z,8.76
2017-02-23T06:00:07.180Z,8.73
2017-02-23T06:01:07.517Z,8.75
2017-02-23T06:02:08.097Z,8.80
2017-02-23T06:03:07.580Z,8.84
2017-02-23T06:04:08.017Z,8.74
2017-02-23T06:05:07.510Z,8.79
2017-02-23T06:06:08.208Z,8.72
2017-02-23T06:07:08.380Z,8.76
2017-02-23T06:08:07.890Z,8.73
2017-02-23T06:09:08.473Z,8.77
2017-02-23T06:10:07.286Z,8.73
2017-02-23T06:11:08.425Z,8.72
2017-02-23T06:12:08.310Z,8.75
2017-02-23T06:13:08.010Z,8.80
2017-02-23T06:14:07.850Z,8.80
2017-02-23T06:15:07.371Z,8.59
2017-02-23T06:16:07.383Z,8.66
2017-02-23T06:17:08.262Z,8.75
2017-02-23T06:18:08.153Z,8.73
2017-02-23T06:19:08.318Z,8.70
2017-02-23T06:20:08.181Z,8.77
2017-02-23T06:21:07.757Z,8.72
2017-02-23T06:22:08.112Z,8.63
2017-02-23T06:24:11.976Z,8.61
2017-02-23T06:25:07.335Z,8.69
2017-02-23T06:26:08.143Z,8.69
2017-02-23T06:27:07.857Z,8.65
2017-02-23T06:28:07.801Z,8.72
2017-02-23T06:29:07.550Z,8.74
2017-02-23T06:30:07.209Z,8.76
2017-02-23T06:31:07.919Z,8.70
2017-02-23T06:32:07.578Z,8.63
2017-02-23T06:33:07.112Z,8.69
2017-02-23T06:34:07.641Z,8.69
2017-02-23T06:35:07.191Z,8.70
2017-02-23T06:36:07.777Z,8.80
2017-02-23T06:37:07.302Z,8.77
2017-02-23T06:38:07.904Z,8.78
2017-02-23T06:39:07.518Z,8.76
2017-02-23T06:40:08.151Z,8.67
2017-02-23T06:41:07.656Z,8.73
2017-02-23T06:42:07.357Z,8.72
2017-02-23T06:43:08.017Z,8.64
2017-02-23T06:44:07.758Z,8.69
2017-02-23T06:45:07.700Z,8.63
2017-02-23T06:46:07.230Z,8.74
2017-02-23T06:47:07.752Z,8.66
2017-02-23T06:48:07.279Z,8.61
2017-02-23T06:49:07.873Z,8.60
2017-02-23T06:50:07.384Z,8.60
2017-02-23T06:51:07.962Z,8.53
2017-02-23T06:52:07.523Z,8.53
2017-02-23T06:53:08.063Z,8.55
2017-02-23T06:54:07.550Z,8.58
2017-02-23T06:55:07.341Z,8.55
2017-02-23T06:56:08.203Z,8.61
2017-02-23T06:57:07.845Z,8.53
2017-02-23T06:58:07.397Z,8.61
2017-02-23T06:59:07.915Z,8.63
2017-02-23T07:00:07.513Z,8.62
2017-02-23T07:01:08.113Z,8.60
2017-02-23T07:02:07.652Z,8.60
2017-02-23T07:03:07.287Z,8.45
2017-02-23T07:04:07.992Z,8.48
2017-02-23T07:05:07.549Z,8.57
2017-02-23T07:06:07.088Z,8.69
2017-02-23T07:07:07.710Z,8.48
2017-02-23T07:08:08.161Z,8.58
2017-02-23T07:09:07.824Z,8.61
2017-02-23T07:10:07.346Z,8.57
2017-02-23T07:11:08.022Z,8.58
2017-02-23T07:12:07.745Z,8.53
2017-02-23T07:13:07.281Z,8.57
2017-02-23T07:14:09.116Z,8.63
2017-02-23T07:15:07.695Z,8.61
2017-02-23T07:16:07.208Z,8.50
2017-02-23T07:17:08.192Z,8.59
2017-02-23T07:18:07.756Z,8.68
2017-02-23T07:19:07.436Z,8.59
2017-02-23T07:20:08.042Z,8.65
2017-02-23T07:21:07.635Z,8.67
2017-02-23T07:22:07.218Z,8.67
2017-02-23T07:23:07.772Z,8.69
2017-02-23T07:24:07.373Z,8.74
2017-02-23T07:25:07.883Z,8.74
2017-02-23T07:26:07.472Z,8.78
2017-02-23T07:27:08.218Z,8.86
2017-02-23T07:28:07.847Z,8.94
2017-02-23T07:29:07.799Z,8.89
2017-02-23T07:30:07.660Z,8.97
2017-02-23T07:31:07.274Z,9.04
2017-02-23T07:32:08.052Z,8.95
2017-02-23T07:33:07.540Z,9.08
2017-02-23T07:34:26.684Z,9.02
2017-02-23T07:35:07.239Z,9.13
2017-02-23T07:36:07.593Z,9.02
2017-02-23T07:37:07.221Z,9.13
2017-02-23T07:38:08.682Z,9.14
2017-02-23T07:39:08.586Z,9.25
2017-02-23T07:40:07.438Z,9.35
2017-02-23T07:41:07.572Z,9.51
2017-02-23T07:42:08.539Z,9.76
2017-02-23T07:43:07.489Z,9.97
2017-02-23T07:44:07.071Z,10.13
2017-02-23T07:45:07.609Z,10.17
2017-02-23T07:46:07.090Z,10.32
2017-02-23T07:47:07.601Z,10.29
2017-02-23T07:48:07.174Z,10.29
2017-02-23T07:49:07.742Z,10.55
2017-02-23T07:50:07.380Z,10.52
2017-02-23T07:51:07.990Z,10.49
2017-02-23T07:52:07.594Z,10.73
2017-02-23T07:53:07.282Z,10.71
2017-02-23T07:54:07.912Z,10.87
2017-02-23T07:55:07.453Z,10.84
2017-02-23T07:56:07.981Z,10.85
2017-02-23T07:57:07.488Z,10.75
2017-02-23T07:58:08.124Z,10.85
2017-02-23T07:59:07.738Z,10.85
2017-02-23T08:00:07.357Z,10.85
2017-02-23T08:01:07.915Z,10.92
2017-02-23T08:02:07.472Z,10.95
2017-02-23T08:03:08.038Z,11.03
2017-02-23T08:04:07.889Z,11.33
2017-02-23T08:05:07.422Z,11.26
2017-02-23T08:06:08.104Z,11.17
2017-02-23T08:07:07.683Z,11.38
2017-02-23T08:08:07.220Z,11.39
2017-02-23T08:09:07.862Z,11.36
2017-02-23T08:10:07.898Z,11.65
2017-02-23T08:11:08.007Z,11.91
2017-02-23T08:12:08.075Z,11.80
2017-02-23T08:13:07.717Z,11.99
2017-02-23T08:14:07.328Z,11.94
2017-02-23T08:15:08.172Z,11.93
2017-02-23T08:16:08.101Z,12.10
2017-02-23T08:17:09.506Z,11.91
2017-02-23T08:18:07.517Z,11.86
2017-02-23T08:19:07.356Z,11.85
2017-02-23T08:20:09.658Z,12.06
2017-02-23T08:21:07.666Z,12.17
2017-02-23T08:22:08.150Z,12.35
2017-02-23T08:23:07.880Z,12.33
2017-02-23T08:24:07.732Z,12.50
2017-02-23T08:25:22.761Z,12.45
2017-02-23T08:26:08.140Z,12.33
2017-02-23T08:27:07.716Z,12.25
2017-02-23T08:28:07.341Z,12.49
2017-02-23T08:29:07.895Z,12.67
2017-02-23T08:30:07.475Z,12.72
2017-02-23T08:31:08.003Z,12.39
2017-02-23T08:32:07.640Z,12.33
2017-02-23T08:33:07.232Z,12.59
2017-02-23T08:34:07.807Z,12.61
2017-02-23T08:35:07.615Z,12.66
2017-02-23T08:36:07.161Z,12.50
2017-02-23T08:37:08.020Z,12.77
2017-02-23T08:38:07.861Z,12.62
2017-02-23T08:39:07.475Z,12.67
2017-02-23T08:40:08.064Z,12.78
2017-02-23T08:41:08.685Z,13.07
2017-02-23T08:42:07.752Z,13.11
2017-02-23T08:43:08.284Z,12.95
2017-02-23T08:44:07.969Z,12.76
2017-02-23T08:45:07.534Z,12.57
2017-02-23T08:46:08.083Z,12.74
2017-02-23T08:47:07.390Z,12.57
2017-02-23T08:48:07.953Z,12.93
2017-02-23T08:49:07.661Z,12.89
2017-02-23T08:50:07.211Z,12.83
2017-02-23T08:51:07.785Z,12.97
2017-02-23T08:52:07.395Z,12.83
2017-02-23T08:53:07.852Z,12.71
2017-02-23T08:54:07.962Z,13.24
2017-02-23T08:55:07.576Z,12.96
2017-02-23T08:56:07.181Z,13.08
2017-02-23T08:57:07.764Z,13.18
2017-02-23T08:58:07.416Z,12.97
2017-02-23T08:59:08.052Z,13.24
2017-02-23T09:00:07.682Z,13.33
2017-02-23T09:01:07.452Z,13.40
2017-02-23T09:02:08.115Z,13.52
2017-02-23T09:03:07.702Z,13.40
2017-02-23T09:04:07.230Z,13.55
2017-02-23T09:05:07.850Z,13.17
2017-02-23T09:06:07.422Z,13.57
2017-02-23T09:07:08.301Z,13.22
2017-02-23T09:08:07.920Z,12.97
2017-02-23T09:09:07.693Z,13.46
2017-02-23T09:10:07.316Z,13.53
2017-02-23T09:11:07.971Z,13.37
2017-02-23T09:12:07.609Z,13.41
2017-02-23T09:13:07.479Z,13.10
2017-02-23T09:14:08.341Z,13.36
2017-02-23T09:15:07.923Z,13.27
2017-02-23T09:16:07.540Z,13.56
2017-02-23T09:17:08.249Z,13.47
2017-02-23T09:18:07.825Z,13.81
2017-02-23T09:19:07.350Z,13.79
2017-02-23T09:20:08.106Z,13.91
2017-02-23T09:21:07.794Z,13.71
2017-02-23T09:22:07.295Z,13.77
2017-02-23T09:23:07.883Z,13.54
2017-02-23T09:24:07.500Z,13.66
2017-02-23T09:25:07.301Z,13.72
2017-02-23T09:26:07.881Z,13.65
2017-02-23T09:27:07.519Z,13.61
2017-02-23T09:28:08.103Z,13.66
2017-02-23T09:29:07.886Z,13.54
2017-02-23T09:30:07.928Z,14.08
2017-02-23T09:31:07.762Z,14.15
2017-02-23T09:32:07.308Z,13.91
2017-02-23T09:33:07.894Z,13.86
2017-02-23T09:34:07.402Z,14.00
2017-02-23T09:35:07.922Z,14.19
2017-02-23T09:36:07.452Z,14.17
2017-02-23T09:37:08.026Z,13.97
2017-02-23T09:38:07.662Z,13.96
2017-02-23T09:39:07.534Z,13.86
2017-02-23T09:40:07.363Z,14.04
2017-02-23T09:41:07.930Z,14.16
2017-02-23T09:42:07.635Z,13.99
2017-02-23T09:43:07.395Z,14.33
2017-02-23T09:44:08.017Z,14.26
2017-02-23T09:45:07.612Z,14.05
2017-02-23T09:46:07.122Z,13.94
2017-02-23T09:47:07.757Z,14.24
2017-02-23T09:48:07.398Z,14.31
2017-02-23T09:49:08.223Z,14.44
2017-02-23T09:50:07.946Z,13.97
2017-02-23T09:51:07.533Z,13.62
2017-02-23T09:52:08.251Z,14.38
2017-02-23T09:53:07.842Z,14.28
2017-02-23T09:54:07.425Z,14.36
2017-02-23T09:55:08.021Z,14.52
2017-02-23T09:56:07.521Z,14.39
2017-02-23T09:57:07.235Z,14.81
2017-02-23T09:58:07.692Z,14.52
2017-02-23T09:59:07.470Z,14.68
2017-02-23T10:00:08.067Z,14.58
2017-02-23T10:01:07.155Z,14.91
2017-02-23T10:02:08.073Z,14.95
2017-02-23T10:03:07.598Z,14.90
2017-02-23T10:04:07.205Z,14.72
2017-02-23T10:05:07.741Z,14.68
2017-02-23T10:06:07.304Z,14.92
2017-02-23T10:07:07.864Z,15.08
2017-02-23T10:08:07.353Z,15.07
2017-02-23T10:09:08.032Z,14.95
2017-02-23T10:10:07.635Z,15.12
2017-02-23T10:11:07.405Z,14.64
2017-02-23T10:12:08.162Z,14.42
2017-02-23T10:13:07.685Z,14.71
2017-02-23T10:14:07.238Z,14.78
2017-02-23T10:15:07.366Z,14.89
2017-02-23T10:16:07.934Z,14.76
2017-02-23T10:17:07.591Z,15.08
2017-02-23T10:18:07.142Z,15.02
2017-02-23T10:19:07.630Z,15.21
2017-02-23T10:20:07.096Z,15.08
2017-02-23T10:21:07.734Z,14.95
2017-02-23T10:22:07.637Z,15.21
2017-02-23T10:23:07.426Z,15.27
2017-02-23T10:24:08.001Z,15.43
2017-02-23T10:25:07.582Z,15.35
2017-02-23T10:26:07.144Z,15.61
2017-02-23T10:27:07.663Z,15.50
2017-02-23T10:28:07.272Z,15.29
2017-02-23T10:29:07.887Z,15.43
2017-02-23T10:30:07.488Z,15.59
2017-02-23T10:31:08.138Z,15.76
2017-02-23T10:32:07.746Z,15.75
2017-02-23T10:33:07.276Z,15.90
2017-02-23T10:34:07.846Z,15.90
2017-02-23T10:35:07.472Z,16.11
2017-02-23T10:36:08.073Z,16.34
2017-02-23T10:37:07.693Z,16.22
2017-02-23T10:38:07.209Z,15.96
2017-02-23T10:39:07.861Z,15.78
2017-02-23T10:40:07.471Z,15.72
2017-02-23T10:41:08.165Z,15.84
2017-02-23T10:42:07.832Z,16.03
2017-02-23T10:43:07.440Z,15.96
2017-02-23T10:44:09.038Z,16.08
2017-02-23T10:45:07.631Z,16.21
2017-02-23T10:46:07.416Z,15.92
2017-02-23T10:47:08.089Z,16.16
2017-02-23T10:48:07.622Z,16.46
2017-02-23T10:49:07.181Z,16.37
2017-02-23T10:50:07.695Z,16.22
2017-02-23T10:51:07.412Z,16.31
2017-02-23T10:52:07.925Z,16.15
2017-02-23T10:53:07.547Z,16.09
2017-02-23T10:54:08.104Z,16.17
2017-02-23T10:55:07.981Z,16.11
2017-02-23T10:56:07.519Z,16.17
2017-02-23T10:57:08.233Z,16.31
2017-02-23T10:58:08.192Z,16.30
2017-02-23T10:59:08.029Z,16.32
2017-02-23T11:00:07.631Z,16.32
2017-02-23T11:01:07.248Z,16.37
2017-02-23T11:02:07.822Z,16.30
2017-02-23T11:03:07.482Z,16.57
2017-02-23T11:04:08.310Z,16.60
2017-02-23T11:05:07.981Z,16.59
2017-02-23T11:06:07.924Z,16.73
2017-02-23T11:07:07.725Z,16.60
2017-02-23T11:08:07.360Z,16.56
2017-02-23T11:09:07.899Z,16.80
2017-02-23T11:10:07.473Z,16.70
2017-02-23T11:11:08.083Z,16.85
2017-02-23T11:12:08.804Z,16.73
2017-02-23T11:13:07.492Z,16.79
2017-02-23T11:14:08.183Z,17.08
2017-02-23T11:15:07.743Z,17.03
2017-02-23T11:16:07.463Z,17.12
2017-02-23T11:17:08.230Z,17.11
2017-02-23T11:18:08.103Z,17.13
2017-02-23T11:19:07.941Z,17.20
2017-02-23T11:20:07.491Z,16.99
2017-02-23T11:21:08.032Z,17.04
2017-02-23T11:22:07.617Z,17.17
2017-02-23T11:23:07.187Z,17.11
2017-02-23T11:24:07.823Z,17.58
2017-02-23T11:25:07.450Z,17.54
2017-02-23T11:26:08.210Z,17.51
2017-02-23T11:27:08.027Z,17.66
2017-02-23T11:28:07.586Z,17.64
2017-02-23T11:29:07.209Z,17.80
2017-02-23T11:30:07.873Z,17.48
2017-02-23T11:31:07.520Z,17.60
2017-02-23T11:32:08.164Z,17.67
2017-02-23T11:33:07.692Z,17.63
2017-02-23T11:34:07.198Z,17.72
2017-02-23T11:35:07.862Z,17.86
2017-02-23T11:36:07.402Z,17.80
2017-02-23T11:37:07.911Z,18.02
2017-02-23T11:38:07.512Z,18.07
2017-02-23T11:39:08.086Z,18.09
2017-02-23T11:40:07.682Z,17.99
2017-02-23T11:41:07.202Z,18.05
2017-02-23T11:42:07.810Z,18.20
2017-02-23T11:43:07.498Z,18.16
2017-02-23T11:44:08.074Z,18.15
2017-02-23T11:45:07.717Z,18.29
2017-02-23T11:46:07.303Z,17.94
2017-02-23T11:47:07.934Z,17.80
2017-02-23T11:48:07.471Z,17.78
2017-02-23T11:49:08.083Z,17.86
2017-02-23T11:50:07.729Z,17.90
2017-02-23T11:51:07.290Z,17.85
2017-02-23T11:52:17.743Z,17.85
2017-02-23T11:53:07.265Z,17.85
2017-02-23T11:54:07.867Z,17.88
2017-02-23T11:55:07.367Z,17.85
2017-02-23T11:56:07.947Z,17.90
2017-02-23T11:57:07.551Z,17.78
2017-02-23T11:58:20.938Z,17.68
2017-02-23T11:59:07.425Z,17.77
2017-02-23T12:00:08.032Z,17.67
2017-02-23T12:01:07.981Z,17.77
2017-02-23T12:02:07.604Z,17.78
2017-02-23T12:03:07.313Z,17.78
2017-02-23T12:04:07.920Z,17.84
2017-02-23T12:05:07.565Z,17.80
2017-02-23T12:06:07.124Z,17.69
2017-02-23T12:07:07.702Z,17.46
2017-02-23T12:08:07.270Z,17.70
2017-02-23T12:09:07.832Z,17.66
2017-02-23T12:10:07.629Z,17.53
2017-02-23T12:11:07.438Z,17.66
2017-02-23T12:12:08.259Z,17.62
2017-02-23T12:13:09.015Z,17.57
2017-02-23T12:14:07.479Z,17.63
2017-02-23T12:15:08.160Z,17.77
2017-02-23T12:16:08.051Z,17.97
2017-02-23T12:17:07.731Z,17.95
2017-02-23T12:18:07.315Z,17.79
2017-02-23T12:20:08.106Z,17.97
2017-02-23T12:21:07.650Z,17.89
2017-02-23T12:22:07.610Z,17.83
2017-02-23T12:23:07.332Z,17.93
2017-02-23T12:24:07.870Z,17.83
2017-02-23T12:25:07.468Z,17.82
2017-02-23T12:26:08.083Z,17.86
2017-02-23T12:27:07.677Z,17.84
2017-02-23T12:28:07.243Z,17.85
2017-02-23T12:29:07.850Z,17.90
2017-02-23T12:30:07.421Z,17.99
2017-02-23T12:31:07.954Z,17.89
2017-02-23T12:32:07.596Z,17.98
2017-02-23T12:33:07.683Z,18.00
2017-02-23T12:34:07.288Z,17.86
2017-02-23T12:35:07.952Z,17.93
2017-02-23T12:36:07.648Z,17.79
2017-02-23T12:37:07.154Z,17.89
2017-02-23T12:38:07.640Z,17.88
2017-02-23T12:39:07.167Z,17.88
2017-02-23T12:40:07.769Z,17.76
2017-02-23T12:41:07.279Z,17.92
2017-02-23T12:42:33.320Z,17.81
2017-02-23T12:43:08.056Z,17.95
2017-02-23T12:44:07.588Z,17.80
2017-02-23T12:45:07.444Z,17.67
2017-02-23T12:46:08.032Z,17.83
2017-02-23T12:47:07.556Z,17.76
2017-02-23T12:48:08.183Z,17.69
2017-02-23T12:49:07.765Z,17.89
2017-02-23T12:50:07.346Z,17.79
2017-02-23T12:51:07.918Z,18.04
2017-02-23T12:52:07.447Z,17.86
2017-02-23T12:53:08.111Z,17.92
2017-02-23T12:54:09.014Z,17.63
2017-02-23T12:55:07.656Z,17.56
2017-02-23T12:56:07.201Z,17.68
2017-02-23T12:57:07.712Z,17.85
2017-02-23T12:58:07.319Z,17.76
2017-02-23T12:59:07.858Z,17.58
2017-02-23T13:00:07.443Z,17.57
2017-02-23T13:01:08.179Z,17.59
2017-02-23T13:02:07.717Z,17.68
2017-02-23T13:03:07.261Z,17.65
2017-02-23T13:04:07.855Z,17.39
2017-02-23T13:05:07.448Z,17.51
2017-02-23T13:06:08.417Z,17.54
2017-02-23T13:07:07.873Z,17.65
2017-02-23T13:08:07.888Z,17.59
2017-02-23T13:09:07.605Z,17.70
2017-02-23T13:10:07.200Z,17.74
2017-02-23T13:11:07.787Z,17.65
2017-02-23T13:12:07.360Z,17.78
2017-02-23T13:13:07.937Z,17.85
2017-02-23T13:14:07.504Z,17.82
2017-02-23T13:15:08.358Z,17.77
2017-02-23T13:16:08.017Z,17.90
2017-02-23T13:17:07.837Z,18.04
2017-02-23T13:18:07.356Z,17.91
2017-02-23T13:19:07.936Z,18.01
2017-02-23T13:20:07.511Z,18.06
2017-02-23T13:21:08.203Z,18.05
2017-02-23T13:22:07.798Z,18.11
2017-02-23T13:23:07.327Z,17.99
2017-02-23T13:24:07.994Z,18.00
2017-02-23T13:25:07.522Z,18.05
2017-02-23T13:26:08.016Z,17.95
2017-02-23T13:27:07.723Z,17.91
2017-02-23T13:28:07.598Z,17.89
2017-02-23T13:29:07.120Z,17.83